Time;durP1;ratioP1;P1;durP2;ratioP2;P2;SDS_P1;SDS_P2;PMS_P1;PMS_P2;Temp;Humidity;BMP_temperature;BMP_pressure;BME280_temperature;BME280_humidity;BME280_pressure;Samples;Min_cycle;Max_cycle;Signal;HPM_P1;HPM_P2
2022/04/29 00:01:27;;;;;;;13.52;7.05;;;;;;;5.31;100.00;101563.00;5054522;28;20398;-75
2022/04/29 00:03:53;;;;;;;15.48;7.10;;;;;;;5.33;100.00;101566.53;5055048;28;20119;-76
2022/04/29 00:06:19;;;;;;;17.15;7.00;;;;;;;5.32;100.00;101565.66;5054469;28;20055;-75
2022/04/29 00:08:45;;;;;;;15.85;8.27;;;;;;;5.24;100.00;101567.31;5036946;28;20032;-75
2022/04/29 00:11:11;;;;;;;19.55;7.57;;;;;;;5.19;100.00;101569.91;5055086;28;20033;-76
2022/04/29 00:13:36;;;;;;;15.15;7.15;;;;;;;5.05;100.00;101574.13;5054305;28;20078;-76
2022/04/29 00:16:02;;;;;;;16.67;7.50;;;;;;;4.66;100.00;101577.09;5036320;28;20021;-75
2022/04/29 00:18:27;;;;;;;16.73;8.35;;;;;;;4.54;100.00;101569.84;5054371;28;20405;-76
2022/04/29 00:20:52;;;;;;;20.73;8.85;;;;;;;4.49;100.00;101568.88;5054085;28;20036;-76
2022/04/29 00:23:18;;;;;;;15.57;8.25;;;;;;;4.47;100.00;101569.75;5054005;28;20025;-75
2022/04/29 00:25:44;;;;;;;17.55;7.80;;;;;;;4.48;100.00;101562.72;5053840;28;20071;-75
2022/04/29 00:28:09;;;;;;;18.75;8.38;;;;;;;4.50;100.00;101555.69;5036231;28;20147;-76
2022/04/29 00:30:34;;;;;;;15.52;7.43;;;;;;;4.52;100.00;101564.53;5053970;28;20492;-75
2022/04/29 00:33:00;;;;;;;22.25;8.57;;;;;;;4.40;100.00;101567.88;5053681;28;20036;-75
2022/04/29 00:35:26;;;;;;;19.35;8.35;;;;;;;4.28;100.00;101555.31;5053535;28;20025;-76
2022/04/29 00:37:53;;;;;;;19.98;8.30;;;;;;;4.32;100.00;101559.81;5053647;28;20398;-75
2022/04/29 00:40:29;;;;;;;18.70;9.23;;;;;;;4.18;100.00;101563.97;5053571;28;20039;-76
2022/04/29 00:45:34;;;;;;;21.73;9.45;;;;;;;4.13;100.00;101558.59;5014219;28;20042;-86
2022/04/29 00:47:59;;;;;;;22.42;10.70;;;;;;;4.11;100.00;101553.31;5013064;28;20140;-86
2022/04/29 00:50:28;;;;;;;21.70;11.15;;;;;;;4.06;100.00;101547.03;5015091;28;20026;-86
2022/04/29 00:53:00;;;;;;;23.20;9.90;;;;;;;4.08;100.00;101542.66;5014371;28;20018;-85
2022/04/29 00:55:26;;;;;;;21.02;10.73;;;;;;;4.03;100.00;101544.34;4997143;28;20122;-85
2022/04/29 00:58:13;;;;;;;22.58;10.57;;;;;;;3.98;100.00;101548.66;5014574;28;20105;-86
2022/04/29 01:00:39;;;;;;;22.27;10.45;;;;;;;4.00;100.00;101541.63;4997314;28;20084;-86
2022/04/29 01:03:05;;;;;;;24.25;10.50;;;;;;;4.10;100.00;101542.69;5014553;28;20033;-85
2022/04/29 01:05:33;;;;;;;22.67;9.48;;;;;;;4.22;100.00;101531.44;5014617;28;20499;-86
2022/04/29 01:07:59;;;;;;;23.77;11.00;;;;;;;4.28;100.00;101526.25;4996530;28;20037;-85
2022/04/29 01:10:24;;;;;;;20.33;9.73;;;;;;;4.37;100.00;101522.88;4996665;28;20022;-86
2022/04/29 01:12:53;;;;;;;22.58;9.43;;;;;;;4.41;100.00;101522.03;5014039;28;20025;-83
2022/04/29 01:15:19;;;;;;;17.10;9.25;;;;;;;4.34;100.00;101518.41;4996837;28;20109;-86
2022/04/29 01:17:50;;;;;;;18.30;9.27;;;;;;;4.30;100.00;101527.19;5016782;28;20443;-85
2022/04/29 01:20:23;;;;;;;22.25;10.10;;;;;;;4.31;100.00;101525.41;5014275;28;20068;-85
2022/04/29 01:22:48;;;;;;;19.92;9.32;;;;;;;4.30;100.00;101524.53;5014128;28;20037;-86
2022/04/29 01:25:14;;;;;;;19.88;10.15;;;;;;;4.32;100.00;101525.44;4996493;28;20024;-85
2022/04/29 01:27:41;;;;;;;23.08;10.07;;;;;;;4.35;100.00;101527.25;5014375;28;20049;-84
2022/04/29 01:30:19;;;;;;;17.27;9.57;;;;;;;4.30;100.00;101529.81;5014514;28;20025;-85
2022/04/29 01:32:47;;;;;;;21.70;10.10;;;;;;;4.36;100.00;101524.63;5013996;28;20129;-86
2022/04/29 01:35:17;;;;;;;19.60;10.23;;;;;;;4.37;100.00;101530.81;5014058;28;20084;-85
2022/04/29 01:37:51;;;;;;;21.67;9.93;;;;;;;4.20;100.00;101530.53;4995868;28;20068;-85
2022/04/29 01:40:17;;;;;;;22.40;9.48;;;;;;;4.10;100.00;101530.38;4996417;28;20034;-85
2022/04/29 01:42:43;;;;;;;22.45;9.90;;;;;;;4.16;100.00;101520.75;5014126;28;20515;-85
2022/04/29 01:45:13;;;;;;;18.90;9.60;;;;;;;4.11;100.00;101529.50;4996004;28;20037;-86
2022/04/29 01:47:38;;;;;;;21.50;10.18;;;;;;;4.10;100.00;101526.81;4996311;28;20487;-84
2022/04/29 01:50:04;;;;;;;19.05;9.75;;;;;;;4.16;100.00;101526.03;5013592;28;20107;-86
2022/04/29 01:52:30;;;;;;;20.50;9.55;;;;;;;4.13;100.00;101526.88;4996238;28;20108;-84
2022/04/29 01:54:55;;;;;;;21.02;10.40;;;;;;;3.96;100.00;101516.03;4996433;28;20113;-85
2022/04/29 01:57:24;;;;;;;18.13;9.93;;;;;;;3.88;100.00;101511.50;5013458;28;20025;-84
2022/04/29 01:59:49;;;;;;;22.83;10.75;;;;;;;3.95;100.00;101516.88;5016140;28;20116;-84
2022/04/29 02:02:19;;;;;;;19.27;10.10;;;;;;;3.96;100.00;101513.38;5017447;28;20057;-85
2022/04/29 02:04:47;;;;;;;24.45;11.10;;;;;;;3.97;100.00;101520.47;5018014;28;20017;-84
2022/04/29 02:07:13;;;;;;;20.42;11.13;;;;;;;3.87;100.00;101515.00;4999867;28;20025;-85
2022/04/29 02:09:38;;;;;;;22.67;10.57;;;;;;;3.87;100.00;101504.44;5000021;28;20117;-84
2022/04/29 02:12:04;;;;;;;21.25;11.18;;;;;;;3.89;100.00;101502.69;5017401;28;20525;-85
2022/04/29 02:14:35;;;;;;;28.05;11.02;;;;;;;3.97;100.00;101499.31;5017460;28;20105;-85
2022/04/29 02:17:03;;;;;;;25.63;11.00;;;;;;;4.02;100.00;101489.72;5017736;28;20487;-85
2022/04/29 02:19:30;;;;;;;25.08;10.65;;;;;;;4.05;100.00;101487.09;5017371;28;20060;-85
2022/04/29 02:21:56;;;;;;;25.85;11.13;;;;;;;4.08;100.00;101492.44;5017209;28;20033;-85
2022/04/29 02:24:22;;;;;;;20.27;10.57;;;;;;;4.03;100.00;101494.13;5017448;28;20025;-85
2022/04/29 02:26:47;;;;;;;26.90;10.68;;;;;;;4.00;100.00;101481.75;5017197;28;20025;-85
2022/04/29 02:29:13;;;;;;;24.98;10.65;;;;;;;3.79;100.00;101485.78;5019998;28;20053;-86
2022/04/29 02:31:41;;;;;;;20.85;10.40;;;;;;;3.66;100.00;101484.69;5017839;28;20022;-86
2022/04/29 02:34:07;;;;;;;27.60;10.85;;;;;;;3.69;100.00;101484.75;4999949;28;20402;-85
2022/04/29 02:36:32;;;;;;;25.58;11.35;;;;;;;3.83;100.00;101483.22;4999484;28;20030;-86
2022/04/29 02:38:58;;;;;;;22.75;11.80;;;;;;;3.84;100.00;101482.34;4999320;28;20121;-85
2022/04/29 02:41:23;;;;;;;25.88;11.77;;;;;;;3.84;100.00;101475.28;4999784;28;20036;-84
2022/04/29 02:43:49;;;;;;;29.45;11.65;;;;;;;3.90;100.00;101475.41;5016676;28;20030;-84
2022/04/29 02:46:15;;;;;;;27.67;12.07;;;;;;;3.75;100.00;101469.88;5016776;28;20507;-83
2022/04/29 02:48:46;;;;;;;23.50;12.23;;;;;;;3.73;100.00;101475.13;5017040;28;20025;-85
2022/04/29 02:51:12;;;;;;;25.45;11.88;;;;;;;3.81;100.00;101467.34;5016900;28;20029;-85
2022/04/29 02:53:39;;;;;;;24.63;12.05;;;;;;;3.76;100.00;101461.94;5017073;28;20181;-85
2022/04/29 02:56:04;;;;;;;25.75;11.93;;;;;;;3.79;100.00;101458.47;5016651;28;20509;-85
2022/04/29 02:58:32;;;;;;;27.98;12.38;;;;;;;3.68;100.00;101456.56;5016792;28;20120;-85
2022/04/29 03:00:58;;;;;;;27.70;11.18;;;;;;;3.64;100.00;101453.81;5016525;28;20029;-85
2022/04/29 03:03:26;;;;;;;24.60;12.57;;;;;;;3.68;100.00;101456.56;4998987;28;20026;-85
2022/04/29 03:05:51;;;;;;;24.73;11.30;;;;;;;3.65;100.00;101445.94;5016157;28;20079;-84
2022/04/29 03:08:22;;;;;;;22.80;11.30;;;;;;;3.58;100.00;101449.34;4998764;28;20026;-84
2022/04/29 03:10:48;;;;;;;23.80;11.73;;;;;;;3.51;100.00;101444.78;5015729;28;20099;-86
2022/04/29 03:13:30;;;;;;;29.73;11.60;;;;;;;3.40;100.00;101440.19;4999160;28;20558;-83
2022/04/29 03:16:01;;;;;;;23.15;11.43;;;;;;;3.43;100.00;101440.25;5000094;28;20034;-84
2022/04/29 03:18:44;;;;;;;23.30;11.98;;;;;;;3.41;100.00;101436.69;5016751;28;20029;-85
2022/04/29 03:24:03;;;;;;;25.83;11.93;;;;;;;3.40;100.00;101434.91;5019546;28;20053;-82
2022/04/29 03:26:58;;;;;;;28.02;12.73;;;;;;;3.35;100.00;101429.56;5001785;28;20054;-84
2022/04/29 03:29:33;;;;;;;31.95;12.85;;;;;;;3.18;100.00;101434.53;4963566;28;20040;-84
2022/04/29 03:32:12;;;;;;;29.90;12.38;;;;;;;3.01;100.00;101437.72;5020625;28;20025;-82
2022/04/29 03:34:49;;;;;;;26.77;12.07;;;;;;;3.13;100.00;101430.91;5021154;28;20376;-84
2022/04/29 03:37:23;;;;;;;29.70;12.85;;;;;;;3.16;100.00;101430.97;5019495;28;20025;-83
2022/04/29 03:39:49;;;;;;;26.85;13.05;;;;;;;3.13;100.00;101436.19;5005856;28;20034;-86
2022/04/29 03:42:50;;;;;;;31.13;12.30;;;;;;;2.94;100.00;101441.09;5006797;28;20363;-85
2022/04/29 03:45:28;;;;;;;27.77;12.48;;;;;;;2.94;100.00;101440.22;4988528;28;20511;-85
2022/04/29 03:48:05;;;;;;;34.80;13.48;;;;;;;2.96;100.00;101427.94;5020315;28;20030;-83
2022/04/29 03:50:42;;;;;;;31.15;13.02;;;;;;;3.02;100.00;101433.31;5016036;28;20057;-85
2022/04/29 03:53:34;;;;;;;33.85;13.23;;;;;;;2.89;100.00;101430.44;4999633;28;20112;-84
2022/04/29 03:56:22;;;;;;;30.42;13.63;;;;;;;2.93;100.00;101434.03;4938575;29;20497;-84
2022/04/29 03:59:05;;;;;;;34.33;14.32;;;;;;;2.95;100.00;101434.97;4988201;28;20041;-85
2022/04/29 04:01:49;;;;;;;35.30;13.60;;;;;;;2.81;100.00;101436.44;5003588;28;20116;-87
2022/04/29 04:04:14;;;;;;;;;;;;;;;2.87;100.00;101440.06;5019636;28;20360;-84
2022/04/29 04:07:01;;;;;;;32.83;13.48;;;;;;;2.89;100.00;101435.72;5003762;28;19915;-84
2022/04/29 04:09:29;;;;;;;33.53;14.15;;;;;;;2.87;100.00;101434.81;5020173;28;20033;-85
2022/04/29 04:12:13;;;;;;;34.35;14.18;;;;;;;2.91;100.00;101433.13;5003920;28;20430;-83
2022/04/29 04:14:41;;;;;;;33.05;12.45;;;;;;;2.96;100.00;101434.13;5002420;28;20391;-84
2022/04/29 04:17:15;;;;;;;38.97;14.95;;;;;;;2.92;100.00;101437.53;5002936;28;20057;-84
2022/04/29 04:19:48;;;;;;;33.50;13.70;;;;;;;2.88;100.00;101431.31;5002162;28;20026;-84
2022/04/29 04:22:14;;;;;;;32.20;13.70;;;;;;;2.91;100.00;101441.03;5019153;28;20095;-84
2022/04/29 04:24:59;;;;;;;32.88;14.32;;;;;;;2.90;100.00;101433.97;5003163;28;20064;-83
2022/04/29 04:27:45;;;;;;;42.95;13.93;;;;;;;2.90;100.00;101439.25;5016870;28;20042;-85
2022/04/29 04:30:20;;;;;;;34.65;14.00;;;;;;;2.88;100.00;101435.69;5020645;28;20065;-85
2022/04/29 04:32:48;;;;;;;32.42;14.45;;;;;;;2.94;100.00;101433.16;5021594;28;20517;-85
2022/04/29 04:35:22;;;;;;;35.55;15.50;;;;;;;2.94;100.00;101430.53;5022859;28;20030;-85
2022/04/29 04:37:48;;;;;;;31.33;13.90;;;;;;;3.04;100.00;101442.16;5004465;28;20037;-85
2022/04/29 04:40:17;;;;;;;38.63;14.77;;;;;;;3.07;100.00;101441.31;5004705;28;20029;-84
2022/04/29 04:42:54;;;;;;;34.10;14.52;;;;;;;3.14;100.00;101437.97;5005619;28;20029;-85
2022/04/29 04:45:26;;;;;;;30.83;13.57;;;;;;;3.08;100.00;101437.84;5023996;28;20053;-84
2022/04/29 04:47:55;;;;;;;34.35;14.40;;;;;;;3.10;100.00;101436.13;5025433;28;20022;-85
2022/04/29 04:50:38;;;;;;;36.20;14.48;;;;;;;3.17;100.00;101435.38;5025157;28;20498;-84
2022/04/29 04:53:03;;;;;;;31.13;14.52;;;;;;;3.25;100.00;101446.06;5025602;28;20034;-85
2022/04/29 04:55:37;;;;;;;35.85;14.88;;;;;;;3.33;100.00;101449.75;5006665;28;20030;-84
2022/04/29 04:58:03;;;;;;;37.83;15.27;;;;;;;3.41;100.00;101441.97;5023564;28;20029;-84
2022/04/29 05:00:29;;;;;;;32.15;14.45;;;;;;;3.48;100.00;101448.25;5013962;28;20549;-82
2022/04/29 05:02:57;;;;;;;32.08;13.98;;;;;;;3.46;100.00;101445.59;5018028;28;20025;-82
2022/04/29 05:06:06;;;;;;;31.63;14.07;;;;;;;3.43;100.00;101445.53;5001640;28;20026;-83
2022/04/29 05:08:31;;;;;;;35.00;13.95;;;;;;;3.54;100.00;101451.03;5001925;28;20046;-83
2022/04/29 05:11:02;;;;;;;30.30;13.95;;;;;;;3.57;100.00;101447.53;5003643;28;20052;-83
2022/04/29 05:13:39;;;;;;;33.28;14.82;;;;;;;3.52;100.00;101452.75;5024653;28;20071;-83
2022/04/29 05:16:05;;;;;;;37.95;15.57;;;;;;;3.56;100.00;101445.75;5007342;28;20038;-84
2022/04/29 05:18:32;;;;;;;36.30;14.30;;;;;;;3.59;100.00;101448.47;5007795;28;20037;-83
2022/04/29 05:21:02;;;;;;;34.90;15.85;;;;;;;3.67;100.00;101443.31;5007323;28;20026;-84
2022/04/29 05:23:38;;;;;;;28.77;14.65;;;;;;;3.84;100.00;101454.16;5023828;28;20022;-82
2022/04/29 05:26:03;;;;;;;32.33;15.32;;;;;;;3.97;100.00;101446.47;5006640;28;20025;-83
2022/04/29 05:28:29;;;;;;;35.28;15.05;;;;;;;4.09;100.00;101436.06;5006457;28;20029;-83
2022/04/29 05:30:56;;;;;;;32.95;14.50;;;;;;;4.20;100.00;101443.28;5024049;28;20075;-83
2022/04/29 05:33:23;;;;;;;31.05;14.63;;;;;;;4.25;100.00;101437.19;5006278;28;20029;-83
2022/04/29 05:35:48;;;;;;;35.83;13.98;;;;;;;4.35;100.00;101434.69;5028045;28;20080;-83
2022/04/29 05:38:14;;;;;;;31.23;13.13;;;;;;;4.45;100.00;101438.34;5020211;28;20034;-83
2022/04/29 05:43:23;;;;;;;34.25;13.77;;;;;;;4.56;100.00;101426.16;5029002;28;20065;-83
2022/04/29 05:45:57;;;;;;;30.38;12.43;;;;;;;4.61;100.00;101427.97;5028772;28;20022;-82
2022/04/29 05:48:23;;;;;;;27.75;12.02;;;;;;;4.57;100.00;101433.22;5029551;28;20033;-83
2022/04/29 05:50:49;;;;;;;26.13;12.15;;;;;;;4.54;100.00;101430.53;5029094;28;20026;-83
2022/04/29 05:53:26;;;;;;;30.38;12.18;;;;;;;4.60;100.00;101439.41;5029193;28;20025;-84
2022/04/29 05:55:54;;;;;;;27.73;11.95;;;;;;;4.58;100.00;101440.31;5010281;28;20045;-83
2022/04/29 05:58:22;;;;;;;23.42;11.75;;;;;;;4.66;100.00;101436.88;5029358;28;20049;-83
2022/04/29 06:00:48;;;;;;;27.35;11.70;;;;;;;4.66;100.00;101436.88;5027747;28;20026;-83
2022/04/29 06:03:19;;;;;;;27.25;11.52;;;;;;;4.72;100.00;101434.28;5012209;28;20097;-84
2022/04/29 06:05:45;;;;;;;32.10;12.77;;;;;;;4.56;100.00;101439.38;5012942;28;20094;-84
2022/04/29 06:08:10;;;;;;;29.13;12.35;;;;;;;4.45;100.00;101448.94;5029750;28;20042;-84
2022/04/29 06:10:36;;;;;;;29.25;13.43;;;;;;;4.53;100.00;101449.94;5029429;28;20025;-83
2022/04/29 06:13:09;;;;;;;23.63;12.43;;;;;;;4.58;100.00;101448.25;5023770;28;20034;-83
2022/04/29 06:15:38;;;;;;;;;;;;;;;4.61;100.00;101450.03;5020903;28;20032;-83
2022/04/29 06:18:03;;;;;;;24.95;12.52;;;;;;;4.66;100.00;101450.09;5004069;28;19928;-83
2022/04/29 06:20:34;;;;;;;33.55;13.32;;;;;;;4.64;100.00;101443.91;5023681;28;20037;-83
2022/04/29 06:22:59;;;;;;;32.72;13.77;;;;;;;4.73;100.00;101438.72;5024683;28;20026;-83
2022/04/29 06:25:25;;;;;;;25.35;13.52;;;;;;;4.78;100.00;101430.84;5025633;28;20033;-84
2022/04/29 06:27:56;;;;;;;35.15;13.65;;;;;;;4.84;100.00;101430.03;5007908;28;20089;-83
2022/04/29 06:30:22;;;;;;;34.13;13.73;;;;;;;4.89;100.00;101417.75;5026295;28;20572;-83
2022/04/29 06:32:49;;;;;;;28.27;14.32;;;;;;;4.93;100.00;101430.13;5026299;28;20030;-83
2022/04/29 06:35:19;;;;;;;28.65;13.02;;;;;;;4.91;100.00;101431.88;5008059;28;20022;-81
2022/04/29 06:37:47;;;;;;;25.55;12.45;;;;;;;5.01;100.00;101436.41;5008510;28;20030;-83
2022/04/29 06:40:12;;;;;;;27.98;12.32;;;;;;;5.10;100.00;101440.91;5024550;28;20049;-83
2022/04/29 06:42:50;;;;;;;25.90;12.70;;;;;;;5.15;100.00;101446.28;5025132;28;20475;-82
2022/04/29 06:45:16;;;;;;;25.48;12.70;;;;;;;5.23;100.00;101455.19;5060881;22;20110;-75
2022/04/29 06:47:41;;;;;;;28.40;13.43;;;;;;;5.35;100.00;101451.78;5037692;28;20028;-76
2022/04/29 06:50:09;;;;;;;27.55;13.93;;;;;;;5.50;100.00;101451.91;5055396;28;20059;-75
2022/04/29 06:52:34;;;;;;;28.40;14.57;;;;;;;5.65;100.00;101441.47;5024731;28;20021;-74
2022/04/29 06:54:59;;;;;;;29.00;13.63;;;;;;;5.79;100.00;101440.72;5024601;28;20171;-74
2022/04/29 06:57:25;;;;;;;27.60;13.57;;;;;;;5.83;100.00;101439.84;5038200;28;20398;-74
2022/04/29 06:59:50;;;;;;;26.98;13.38;;;;;;;5.96;100.00;101435.53;5037160;28;20064;-74
2022/04/29 07:02:16;;;;;;;32.67;14.57;;;;;;;6.05;100.00;101426.78;5055605;28;20025;-74
2022/04/29 07:04:41;;;;;;;35.17;15.80;;;;;;;6.21;100.00;101437.53;5036606;28;20017;-74
2022/04/29 07:07:07;;;;;;;30.25;14.55;;;;;;;6.02;100.00;101434.72;5055179;28;20017;-74
2022/04/29 07:09:32;;;;;;;32.45;14.57;;;;;;;6.20;100.00;101438.41;5055152;28;20032;-74
2022/04/29 07:11:58;;;;;;;29.38;14.65;;;;;;;6.33;100.00;101434.97;5054927;28;20048;-74
2022/04/29 07:14:23;;;;;;;30.77;14.45;;;;;;;6.33;100.00;101445.56;5054686;28;20083;-74
2022/04/29 07:16:49;;;;;;;29.15;15.07;;;;;;;6.45;100.00;101455.38;5036763;28;20107;-74
2022/04/29 07:19:15;;;;;;;25.33;14.00;;;;;;;6.54;100.00;101453.66;5036006;28;20021;-74
2022/04/29 07:21:40;;;;;;;35.67;17.45;;;;;;;6.42;100.00;101454.44;5054695;28;20035;-74
2022/04/29 07:24:06;;;;;;;33.60;15.75;;;;;;;6.61;100.00;101452.78;5054665;28;20028;-74
2022/04/29 07:26:31;;;;;;;35.17;16.20;;;;;;;6.74;100.00;101450.19;5054434;28;20489;-74
2022/04/29 07:28:56;;;;;;;31.13;14.00;;;;;;;6.87;100.00;101445.84;5054663;28;20104;-74
2022/04/29 07:31:22;;;;;;;25.40;12.15;;;;;;;6.90;100.00;101440.53;5054511;28;20107;-74
2022/04/29 07:33:47;;;;;;;36.42;17.00;;;;;;;7.11;100.00;101439.72;5054710;28;20021;-74
2022/04/29 07:41:46;;;;;;;;;;;;;;;7.00;100.00;101442.34;5054849;28;20091;-74
2022/04/29 07:44:13;;;;;;;34.58;16.95;;;;;;;7.05;100.00;101434.41;5054110;28;19952;-74
2022/04/29 07:46:39;;;;;;;37.85;17.40;;;;;;;7.26;100.00;101438.91;5036256;28;20079;-74
2022/04/29 07:49:05;;;;;;;36.50;17.30;;;;;;;7.28;100.00;101436.22;5054202;28;20031;-74
2022/04/29 07:51:31;;;;;;;33.22;17.27;;;;;;;7.22;100.00;101426.47;5035614;28;20486;-74
2022/04/29 07:53:56;;;;;;;36.55;17.73;;;;;;;7.23;100.00;101414.97;5054014;28;20028;-74
2022/04/29 07:56:21;;;;;;;32.90;16.25;;;;;;;7.38;100.00;101421.19;5053837;28;20103;-74
2022/04/29 07:58:47;;;;;;;39.47;18.20;;;;;;;7.49;100.00;101413.25;5054004;28;20021;-75
2022/04/29 08:01:12;;;;;;;37.55;18.63;;;;;;;7.60;100.00;101421.22;5053950;28;20032;-74
2022/04/29 08:03:38;;;;;;;30.83;17.13;;;;;;;7.61;100.00;101417.66;5053933;28;20474;-74
2022/04/29 08:06:05;;;;;;;34.60;16.98;;;;;;;7.81;100.00;101416.78;5034761;28;20017;-74
2022/04/29 08:08:31;;;;;;;38.88;17.05;;;;;;;8.05;100.00;101415.00;5033841;28;20406;-74
2022/04/29 08:10:56;;;;;;;34.85;17.55;;;;;;;8.18;100.00;101425.63;5034086;28;20029;-75
2022/04/29 08:13:22;;;;;;;34.92;17.98;;;;;;;8.20;100.00;101423.84;5034195;28;20096;-74
2022/04/29 08:15:49;;;;;;;42.40;18.33;;;;;;;7.98;100.00;101426.53;5034029;28;20471;-74
2022/04/29 08:18:15;;;;;;;39.28;17.98;;;;;;;8.21;100.00;101429.16;5033660;28;20064;-74
2022/04/29 08:20:41;;;;;;;35.15;19.17;;;;;;;8.16;100.00;101426.53;5016016;28;20573;-74
2022/04/29 08:23:07;;;;;;;37.03;20.13;;;;;;;8.39;100.00;101422.03;5033701;28;20104;-74
2022/04/29 08:25:32;;;;;;;34.95;17.98;;;;;;;8.58;100.00;101428.19;5033538;28;20437;-74
2022/04/29 08:28:00;;;;;;;39.47;19.38;;;;;;;8.70;100.00;101426.41;5033491;28;20379;-74
2022/04/29 08:30:29;;;;;;;43.53;21.42;;;;;;;8.73;100.00;101426.41;5033447;28;20474;-74
2022/04/29 08:32:54;;;;;;;42.88;20.67;;;;;;;8.73;100.00;101426.41;5033455;28;20029;-74
2022/04/29 08:35:19;;;;;;;42.65;20.42;;;;;;;8.89;100.00;101432.53;5033408;28;20029;-74
2022/04/29 08:37:45;;;;;;;39.83;19.73;;;;;;;9.01;100.00;101428.94;5033510;28;20466;-75
2022/04/29 08:40:12;;;;;;;36.88;20.02;;;;;;;9.10;100.00;101424.44;5032316;28;20039;-74
2022/04/29 08:42:38;;;;;;;39.10;20.30;;;;;;;8.97;100.00;101424.50;5015644;28;20033;-74
2022/04/29 08:45:16;;;;;;;39.60;20.02;;;;;;;8.98;100.00;101420.06;5014560;28;20188;-74
2022/04/29 08:47:44;;;;;;;37.65;19.95;;;;;;;8.75;100.00;101419.28;5032634;28;20391;-75
2022/04/29 08:50:18;;;;;;;35.70;19.83;;;;;;;8.70;100.00;101415.75;5014832;28;20029;-74
2022/04/29 08:52:44;;;;;;;37.85;19.30;;;;;;;8.68;100.00;101421.09;5033318;28;20025;-74
2022/04/29 09:00:41;;;;;;;32.25;18.75;;;;;;;8.55;100.00;101427.31;5033491;28;20048;-74
2022/04/29 09:03:11;;;;;;;35.10;18.83;;;;;;;8.61;100.00;101421.97;5015036;28;20021;-74
2022/04/29 09:05:36;;;;;;;30.30;17.80;;;;;;;8.58;100.00;101416.66;5032905;28;20021;-74
2022/04/29 09:08:04;;;;;;;33.00;17.75;;;;;;;8.51;100.00;101415.78;5033007;28;20508;-74
2022/04/29 09:10:35;;;;;;;33.63;17.52;;;;;;;8.61;100.00;101414.00;5032486;28;20425;-74
2022/04/29 09:13:18;;;;;;;34.72;17.58;;;;;;;8.79;100.00;101413.03;5015212;28;20055;-75
2022/04/29 09:15:52;;;;;;;28.53;16.10;;;;;;;9.02;100.00;101414.69;5032828;28;20033;-74
2022/04/29 09:19:03;;;;;;;26.75;15.85;;;;;;;9.10;100.00;101419.09;5032798;28;20052;-74
2022/04/29 09:21:32;;;;;;;28.25;15.50;;;;;;;9.09;100.00;101406.69;5027823;28;20034;-74
2022/04/29 09:24:05;;;;;;;28.38;14.90;;;;;;;9.42;100.00;101409.13;5014995;28;20480;-75
2022/04/29 09:26:34;;;;;;;22.85;14.73;;;;;;;9.59;100.00;101414.34;5032683;28;20382;-75
2022/04/29 09:29:10;;;;;;;28.88;15.57;;;;;;;9.99;100.00;101406.91;5032655;28;20036;-75
2022/04/29 09:31:53;;;;;;;23.73;13.48;;;;;;;9.56;100.00;101395.72;5032327;28;20056;-75
2022/04/29 09:34:19;;;;;;;22.30;13.90;;;;;;;9.71;100.00;101395.59;5032502;28;20032;-75
2022/04/29 09:36:45;;;;;;;23.55;13.40;;;;;;;9.78;100.00;101398.19;5032139;28;20037;-75
2022/04/29 09:39:30;;;;;;;21.80;13.65;;;;;;;9.77;100.00;101394.63;5032203;28;20108;-75
2022/04/29 09:42:05;;;;;;;25.27;14.18;;;;;;;9.94;100.00;101407.84;5031968;28;20026;-74
2022/04/29 09:44:35;;;;;;;26.75;13.70;;;;;;;9.98;100.00;101399.78;5032124;28;20467;-75
2022/04/29 09:47:17;;;;;;;22.40;13.98;;;;;;;10.69;100.00;101403.50;5034653;28;20031;-74
2022/04/29 09:49:55;;;;;;;22.80;12.82;;;;;;;10.87;100.00;101397.94;5052080;28;20520;-74
2022/04/29 09:52:21;;;;;;;22.52;13.35;;;;;;;10.95;100.00;101401.41;5032087;28;20033;-74
2022/04/29 09:54:47;;;;;;;24.48;13.23;;;;;;;11.21;100.00;101391.25;5032000;28;20492;-74
2022/04/29 09:57:14;;;;;;;27.48;13.30;;;;;;;11.22;99.63;101399.22;5032196;28;20112;-74
2022/04/29 09:59:40;;;;;;;21.70;12.88;;;;;;;11.47;100.00;101405.97;5014152;28;20034;-74
2022/04/29 10:02:06;;;;;;;22.10;11.88;;;;;;;11.34;94.28;101416.00;5032019;28;20021;-74
2022/04/29 10:04:35;;;;;;;23.60;12.30;;;;;;;11.09;96.93;101408.31;5032561;28;20057;-74
2022/04/29 10:07:06;;;;;;;22.58;11.65;;;;;;;11.59;98.13;101412.94;5014833;28;20021;-75
2022/04/29 10:09:33;;;;;;;21.60;12.60;;;;;;;11.12;98.91;101408.28;5032506;28;20492;-75
2022/04/29 10:12:04;;;;;;;24.98;12.27;;;;;;;11.22;100.00;101398.34;5014513;28;20032;-74
2022/04/29 10:14:31;;;;;;;22.45;11.85;;;;;;;11.50;100.00;101401.47;5032353;28;20032;-74
2022/04/29 10:22:41;;;;;;;21.40;11.43;;;;;;;11.27;93.76;101397.38;5036337;28;20024;-74
2022/04/29 10:25:11;;;;;;;21.60;11.57;;;;;;;11.29;97.13;101398.22;5035947;28;20021;-74
2022/04/29 10:27:40;;;;;;;17.30;10.98;;;;;;;11.53;99.64;101396.97;5036067;28;20025;-74
2022/04/29 10:30:07;;;;;;;24.17;11.02;;;;;;;11.43;94.06;101399.81;5035739;28;20017;-74
2022/04/29 10:32:59;;;;;;;21.10;10.63;;;;;;;11.02;97.80;101403.09;5037197;28;20104;-72
2022/04/29 10:35:39;;;;;;;24.05;11.93;;;;;;;11.04;100.00;101403.03;5034352;28;20029;-74
2022/04/29 10:38:21;;;;;;;21.25;10.90;;;;;;;10.98;98.17;101404.00;5034617;28;20022;-74
2022/04/29 10:41:07;;;;;;;19.13;11.27;;;;;;;10.80;99.02;101397.13;5035715;28;20513;-74
2022/04/29 10:43:36;;;;;;;19.63;10.95;;;;;;;10.97;100.00;101396.91;5035823;28;20025;-74
2022/04/29 10:46:04;;;;;;;16.98;10.57;;;;;;;10.96;100.00;101392.47;5035587;28;20029;-74
2022/04/29 10:48:30;;;;;;;18.90;11.07;;;;;;;10.97;98.71;101383.56;5035810;28;20029;-75
2022/04/29 10:50:56;;;;;;;20.70;11.65;;;;;;;11.04;100.00;101385.22;5017868;28;20390;-75
2022/04/29 10:53:22;;;;;;;19.92;11.30;;;;;;;11.11;97.52;101387.78;5035579;28;20457;-74
2022/04/29 10:55:48;;;;;;;21.13;11.52;;;;;;;10.74;100.00;101387.41;5017705;28;20071;-74
2022/04/29 10:58:21;;;;;;;19.17;11.13;;;;;;;10.92;98.94;101382.72;5035532;28;20017;-74
2022/04/29 11:01:16;;;;;;;;;;;;;;;10.80;96.84;101386.44;5028737;28;20501;-74
2022/04/29 11:03:44;;;;;;;20.40;9.52;;;;;;;10.82;98.01;101385.50;5055378;28;19912;-74
2022/04/29 11:06:12;;;;;;;18.33;10.15;;;;;;;10.69;96.70;101389.28;5055364;28;20036;-74
2022/04/29 11:08:38;;;;;;;20.30;10.02;;;;;;;10.75;96.75;101373.13;5055391;28;20475;-74
2022/04/29 11:11:04;;;;;;;16.17;10.20;;;;;;;10.94;97.35;101380.91;5055311;28;20501;-74
2022/04/29 11:13:30;;;;;;;19.17;9.25;;;;;;;10.94;97.35;101372.91;5055360;28;20056;-74
2022/04/29 11:16:07;;;;;;;17.73;10.25;;;;;;;10.99;95.43;101368.38;5055129;28;20021;-74
2022/04/29 11:18:32;;;;;;;17.35;9.07;;;;;;;10.81;95.31;101365.06;5037600;28;20473;-74
2022/04/29 11:24:40;;;;;;;24.02;10.00;;;;;;;11.01;96.86;101366.56;5037344;28;20086;-75
2022/04/29 11:26:46;;;;;;;19.15;8.65;;;;;;;10.69;94.48;101365.22;5043980;28;20095;-74
2022/04/29 11:29:12;;;;;;;17.58;9.15;;;;;;;10.97;94.28;101364.84;5041958;28;20442;-74
2022/04/29 11:31:38;;;;;;;15.63;8.82;;;;;;;11.00;94.47;101366.59;5053837;28;20572;-74
2022/04/29 11:34:07;;;;;;;19.48;8.70;;;;;;;11.26;95.55;101368.84;5037079;28;20035;-74
2022/04/29 11:36:32;;;;;;;15.55;8.55;;;;;;;11.23;90.59;101374.28;5055018;28;20095;-75
2022/04/29 11:38:58;;;;;;;17.00;8.20;;;;;;;11.48;91.93;101378.34;5036908;28;20394;-74
2022/04/29 11:41:29;;;;;;;13.30;7.68;;;;;;;11.59;88.59;101370.13;5055037;28;20040;-74
2022/04/29 11:43:55;;;;;;;13.15;7.43;;;;;;;11.64;87.47;101367.38;5036735;28;20043;-74
2022/04/29 11:46:21;;;;;;;13.68;7.78;;;;;;;11.79;89.52;101367.13;5054648;28;20456;-74
2022/04/29 11:48:54;;;;;;;11.82;6.82;;;;;;;12.07;91.62;101373.75;5036719;28;20079;-75
2022/04/29 11:51:20;;;;;;;19.40;7.32;;;;;;;12.12;86.78;101366.50;5054964;28;20017;-74